Lulu, Florida
Current Conditions -  °F | °C
As of 2:55 PM on Monday 22 Dec 2014 (Local Time) from KLCQ Reporting Station
Overcast Overcast  
Wind Chill: 68°   Ceiling: 700
Heat Index: 68°   Visibility: 7mi
Dew Point: 68°   Wind: 3mph
Humidity: 100%   Direction: 170°S
Pressure: 29.87"   Gusts: NA
Location:  30.11°N, 82.49°W
Report Text: KLCQ 221955Z AUTO 17003KT 7SM OVC007 20/20 A2987 RMK AO2 LTG DSNT NE AND NW P0001
Loading
Personal Weather Stations






























Interactive Weather Map New forecast layout! Learn more

10-Day Weather Forecast

Advertisements
Track Severe Weather on mobile